createdAt,value
2018-09-25T00:02:28.341Z,99790.16
2018-09-25T00:05:02.224Z,99791.81
2018-09-25T00:07:36.132Z,99796.77
2018-09-25T00:10:09.973Z,99804.38
2018-09-25T00:12:43.761Z,99799.90
2018-09-25T00:15:17.468Z,99802.73
2018-09-25T00:17:51.267Z,99801.25
2018-09-25T00:20:25.090Z,99802.89
2018-09-25T00:22:59.031Z,99805.14
2018-09-25T00:25:32.993Z,99802.84
2018-09-25T00:28:06.617Z,99812.19
2018-09-25T00:30:40.425Z,99810.84
2018-09-25T00:33:14.348Z,99813.81
2018-09-25T00:35:48.067Z,99820.80
2018-09-25T00:38:21.980Z,99822.91
2018-09-25T00:40:55.724Z,99823.91
2018-09-25T00:43:29.377Z,99823.25
2018-09-25T00:46:03.248Z,99826.98
2018-09-25T00:48:37.105Z,99829.40
2018-09-25T00:51:10.932Z,99831.12
2018-09-25T00:53:44.798Z,99829.47
2018-09-25T00:56:18.577Z,99824.74
2018-09-25T00:58:52.512Z,99830.95
2018-09-25T01:01:26.404Z,99833.60
2018-09-25T01:04:00.133Z,99833.17
2018-09-25T01:06:34.089Z,99831.77
2018-09-25T01:09:08.040Z,99832.20
2018-09-25T01:11:41.616Z,99830.37
2018-09-25T01:14:15.574Z,99827.06
2018-09-25T01:16:49.536Z,99835.14
2018-09-25T01:19:23.449Z,99831.45
2018-09-25T01:21:57.200Z,99828.96
2018-09-25T01:24:31.088Z,99836.98
2018-09-25T01:27:04.828Z,99832.81
2018-09-25T01:29:38.676Z,99835.59
2018-09-25T01:32:12.589Z,99841.77
2018-09-25T01:34:46.362Z,99839.69
2018-09-25T01:37:20.077Z,99839.52
2018-09-25T01:39:54.016Z,99837.99
2018-09-25T01:42:27.883Z,99845.94
2018-09-25T01:45:01.753Z,99841.84
2018-09-25T01:47:35.625Z,99835.73
2018-09-25T01:50:09.533Z,99832.29
2018-09-25T01:52:43.274Z,99846.73
2018-09-25T01:55:17.119Z,99840.50
2018-09-25T01:57:50.933Z,99840.77
2018-09-25T02:00:24.797Z,99842.25
2018-09-25T02:02:58.474Z,99840.88
2018-09-25T02:05:32.300Z,99839.23
2018-09-25T02:08:06.079Z,99844.64
2018-09-25T02:10:39.795Z,99846.66
2018-09-25T02:13:13.686Z,99847.66
2018-09-25T02:15:47.580Z,99844.80
2018-09-25T02:18:21.216Z,99848.51
2018-09-25T02:20:55.128Z,99849.88
2018-09-25T02:23:28.929Z,99853.15
2018-09-25T02:26:02.608Z,99860.78
2018-09-25T02:28:36.255Z,99870.47
2018-09-25T02:31:09.984Z,99864.14
2018-09-25T02:33:43.823Z,99870.21
2018-09-25T02:36:17.638Z,99870.96
2018-09-25T02:38:51.404Z,99867.62
2018-09-25T02:41:25.224Z,99872.98
2018-09-25T02:43:59.066Z,99872.98
2018-09-25T02:46:32.917Z,99870.48
2018-09-25T02:49:06.631Z,99873.27
2018-09-25T02:51:40.399Z,99877.50
2018-09-25T02:54:14.181Z,99881.31
2018-09-25T02:56:47.858Z,99883.19
2018-09-25T02:59:21.730Z,99879.33
2018-09-25T03:01:55.640Z,99885.99
2018-09-25T03:04:29.468Z,99882.50
2018-09-25T03:07:03.228Z,99893.52
2018-09-25T03:09:37.056Z,99893.58
2018-09-25T03:12:10.973Z,99902.41
2018-09-25T03:14:44.826Z,99903.30
2018-09-25T03:17:18.548Z,99903.84
2018-09-25T03:19:52.397Z,99904.92
2018-09-25T03:22:26.274Z,99902.13
2018-09-25T03:25:00.017Z,99910.97
2018-09-25T03:27:33.881Z,99905.84
2018-09-25T03:30:07.757Z,99908.39
2018-09-25T03:32:41.664Z,99908.75
2018-09-25T03:35:15.457Z,99908.98
2018-09-25T03:37:49.334Z,99911.09
2018-09-25T03:40:23.196Z,99911.88
2018-09-25T03:42:56.996Z,99907.96
2018-09-25T03:45:30.703Z,99910.13
2018-09-25T03:48:04.326Z,99913.16
2018-09-25T03:50:38.007Z,99916.89
2018-09-25T03:53:11.820Z,99917.53
2018-09-25T03:55:45.665Z,99924.63
2018-09-25T03:58:19.554Z,99922.50
2018-09-25T04:00:53.441Z,99928.22
2018-09-25T04:03:27.280Z,99934.58
2018-09-25T04:06:01.315Z,99934.95
2018-09-25T04:08:35.161Z,99931.80
2018-09-25T04:11:09.041Z,99928.05
2018-09-25T04:13:42.849Z,99934.27
2018-09-25T04:16:16.728Z,99935.07
2018-09-25T04:18:50.531Z,99937.00
2018-09-25T04:21:24.266Z,99937.53
2018-09-25T04:23:58.112Z,99946.03
2018-09-25T04:26:32.032Z,99942.20
2018-09-25T04:29:05.969Z,99946.02
2018-09-25T04:31:39.865Z,99948.74
2018-09-25T04:34:13.697Z,99955.56
2018-09-25T04:36:47.321Z,99956.19
2018-09-25T04:39:21.100Z,99961.47
2018-09-25T04:41:55.003Z,99961.62
2018-09-25T04:44:28.753Z,99959.02
2018-09-25T04:47:02.663Z,99968.12
2018-09-25T04:49:36.685Z,99964.41
2018-09-25T04:52:10.404Z,99966.82
2018-09-25T04:54:44.218Z,99965.75
2018-09-25T04:57:18.158Z,99967.44
2018-09-25T04:59:51.906Z,99971.34
2018-09-25T05:02:25.849Z,99971.52
2018-09-25T05:04:59.645Z,99971.37
2018-09-25T05:07:33.497Z,99981.14
2018-09-25T05:10:07.467Z,99976.27
2018-09-25T05:12:41.345Z,99980.16
2018-09-25T05:15:15.204Z,99980.42
2018-09-25T05:17:48.992Z,99978.51
2018-09-25T05:20:22.768Z,99983.20
2018-09-25T05:22:56.676Z,99984.75
2018-09-25T05:25:31.502Z,99984.13
2018-09-25T05:28:05.379Z,99981.88
2018-09-25T05:30:39.132Z,99985.14
2018-09-25T05:33:12.845Z,99986.89
2018-09-25T05:35:46.662Z,99992.02
2018-09-25T05:38:20.473Z,100000.02
2018-09-25T05:40:54.315Z,99996.11
2018-09-25T05:43:28.013Z,100002.76
2018-09-25T05:46:01.937Z,100006.08
2018-09-25T05:48:35.896Z,100006.44
2018-09-25T05:51:09.559Z,100006.19
2018-09-25T05:53:43.333Z,100006.87
2018-09-25T05:56:17.280Z,100011.06
2018-09-25T05:58:51.177Z,100014.38
2018-09-25T06:01:24.985Z,100020.36
2018-09-25T06:03:58.806Z,100022.60
2018-09-25T06:06:32.697Z,100022.56
2018-09-25T06:09:06.556Z,100026.82
2018-09-25T06:11:40.337Z,100029.59
2018-09-25T06:14:14.122Z,100036.67
2018-09-25T06:16:47.918Z,100028.35
2018-09-25T06:19:21.801Z,100039.05
2018-09-25T06:21:55.660Z,100039.73
2018-09-25T06:24:29.447Z,100043.22
2018-09-25T06:27:03.209Z,100047.28
2018-09-25T06:29:37.091Z,100049.98
2018-09-25T06:32:11.147Z,100052.50
2018-09-25T06:34:44.963Z,100048.64
2018-09-25T06:37:18.962Z,100055.42
2018-09-25T06:39:52.820Z,100054.42
2018-09-25T06:42:27.187Z,100062.59
2018-09-25T06:45:01.179Z,100065.19
2018-09-25T06:47:34.959Z,100070.76
2018-09-25T06:50:09.237Z,100070.11
2018-09-25T06:52:43.084Z,100069.62
2018-09-25T06:55:16.940Z,100073.36
2018-09-25T06:57:51.451Z,100076.29
2018-09-25T07:00:25.684Z,100082.88
2018-09-25T07:02:59.582Z,100084.17
2018-09-25T07:05:33.717Z,100082.67
2018-09-25T07:08:07.436Z,100093.59
2018-09-25T07:10:41.427Z,100095.15
2018-09-25T07:13:15.501Z,100099.73
2018-09-25T07:15:50.193Z,100104.95
2018-09-25T07:18:24.158Z,100105.88
2018-09-25T07:20:57.926Z,100109.67
2018-09-25T07:23:33.505Z,100106.44
2018-09-25T07:26:07.324Z,100107.47
2018-09-25T07:28:41.262Z,100119.86
2018-09-25T07:31:15.620Z,100125.97
2018-09-25T07:33:49.492Z,100128.48
2018-09-25T07:36:24.526Z,100136.28
2018-09-25T07:38:58.394Z,100136.80
2018-09-25T07:41:32.389Z,100138.37
2018-09-25T07:44:06.222Z,100144.88
2018-09-25T07:46:40.140Z,100153.96
2018-09-25T07:49:14.048Z,100162.68
2018-09-25T07:51:48.789Z,100154.02
2018-09-25T07:54:22.600Z,100163.59
2018-09-25T07:56:57.081Z,100164.67
2018-09-25T07:59:30.959Z,100155.73
2018-09-25T08:02:06.261Z,100167.47
2018-09-25T08:04:40.462Z,100162.31
2018-09-25T08:07:14.250Z,100160.27
2018-09-25T08:09:48.185Z,100161.95
2018-09-25T08:12:22.113Z,100157.70
2018-09-25T08:14:56.118Z,100158.23
2018-09-25T08:17:29.931Z,100157.17
2018-09-25T08:20:04.082Z,100154.53
2018-09-25T08:22:37.870Z,100155.81
2018-09-25T08:25:11.613Z,100156.31
2018-09-25T08:27:45.464Z,100155.91
2018-09-25T08:30:19.275Z,100157.61
2018-09-25T08:32:53.112Z,100157.38
2018-09-25T08:35:26.844Z,100161.59
2018-09-25T08:38:00.738Z,100150.94
2018-09-25T08:40:34.529Z,100157.69
2018-09-25T08:43:08.456Z,100159.95
2018-09-25T08:45:42.385Z,100158.17
2018-09-25T08:48:16.212Z,100150.95
2018-09-25T08:50:49.985Z,100142.58
2018-09-25T08:53:23.961Z,100148.88
2018-09-25T08:55:57.825Z,100149.06
2018-09-25T08:58:31.581Z,100159.26
2018-09-25T09:01:05.390Z,100158.30
2018-09-25T09:03:39.314Z,100154.09
2018-09-25T09:06:13.272Z,100146.20
2018-09-25T09:08:54.268Z,100153.21
2018-09-25T09:11:28.086Z,100148.63
2018-09-25T09:14:01.931Z,100145.31
2018-09-25T09:16:35.941Z,100144.20
2018-09-25T09:19:09.776Z,100147.65
2018-09-25T09:21:43.585Z,100150.25
2018-09-25T09:24:17.474Z,100145.02
2018-09-25T09:26:51.384Z,100151.39
2018-09-25T09:29:25.282Z,100140.31
2018-09-25T09:31:59.685Z,100148.00
2018-09-25T09:34:33.512Z,100144.88
2018-09-25T09:37:07.324Z,100137.18
2018-09-25T09:39:41.156Z,100131.00
2018-09-25T09:42:15.057Z,100140.24
2018-09-25T09:44:48.782Z,100138.50
2018-09-25T09:47:22.689Z,100126.53
2018-09-25T09:49:56.399Z,100133.36
2018-09-25T09:52:30.177Z,100140.49
2018-09-25T09:55:04.008Z,100125.00
2018-09-25T09:57:37.792Z,100128.17
2018-09-25T10:00:11.560Z,100133.28
2018-09-25T10:02:45.398Z,100126.28
2018-09-25T10:05:19.184Z,100128.18
2018-09-25T10:07:52.993Z,100125.02
2018-09-25T10:10:26.770Z,100124.44
2018-09-25T10:13:00.749Z,100129.33
2018-09-25T10:15:34.534Z,100127.45
2018-09-25T10:18:08.437Z,100124.11
2018-09-25T10:20:42.313Z,100131.30
2018-09-25T10:23:15.973Z,100133.84
2018-09-25T10:25:49.710Z,100127.95
2018-09-25T10:28:23.648Z,100126.72
2018-09-25T10:30:57.499Z,100125.78
2018-09-25T10:33:31.267Z,100125.66
2018-09-25T10:36:04.976Z,100127.41
2018-09-25T10:38:38.732Z,100127.05
2018-09-25T10:41:12.577Z,100119.80
2018-09-25T10:43:46.388Z,100115.78
2018-09-25T10:46:20.077Z,100122.36
2018-09-25T10:48:53.926Z,100123.98
2018-09-25T10:51:27.669Z,100119.09
2018-09-25T10:54:01.561Z,100123.00
2018-09-25T10:56:35.366Z,100121.11
2018-09-25T10:59:09.442Z,100116.72
2018-09-25T11:01:43.293Z,100124.27
2018-09-25T11:04:17.233Z,100120.02
2018-09-25T11:06:51.024Z,100118.56
2018-09-25T11:09:24.867Z,100121.80
2018-09-25T11:11:58.556Z,100118.83
2018-09-25T11:14:32.385Z,100117.64
2018-09-25T11:17:06.117Z,100119.34
2018-09-25T11:19:39.908Z,100116.62
2018-09-25T11:22:13.684Z,100121.89
2018-09-25T11:24:47.584Z,100119.03
2018-09-25T11:27:21.441Z,100116.57
2018-09-25T11:29:55.344Z,100106.25
2018-09-25T11:32:29.199Z,100113.89
2018-09-25T11:35:03.167Z,100104.50
2018-09-25T11:37:36.940Z,100099.28
2018-09-25T11:40:10.688Z,100090.36
2018-09-25T11:42:44.424Z,100099.96
2018-09-25T11:45:18.259Z,100097.80
2018-09-25T11:47:51.941Z,100093.51
2018-09-25T11:50:25.841Z,100096.58
2018-09-25T11:52:59.700Z,100098.73
2018-09-25T11:55:33.425Z,100097.80
2018-09-25T11:58:07.231Z,100097.40
2018-09-25T12:00:41.036Z,100094.55
2018-09-25T12:03:14.898Z,100095.98
2018-09-25T12:05:48.647Z,100095.89
2018-09-25T12:08:22.364Z,100090.64
2018-09-25T12:10:56.234Z,100095.67
2018-09-25T12:13:30.114Z,100093.58
2018-09-25T12:16:03.968Z,100083.28
2018-09-25T12:18:38.804Z,100085.58
2018-09-25T12:21:12.876Z,100075.30
2018-09-25T12:23:46.740Z,100078.81
2018-09-25T12:26:20.514Z,100076.00
2018-09-25T12:28:54.274Z,100071.33
2018-09-25T12:31:28.107Z,100072.93
2018-09-25T12:34:01.994Z,100073.95
2018-09-25T12:36:35.719Z,100079.45
2018-09-25T12:39:11.733Z,100073.88
2018-09-25T12:41:45.567Z,100071.39
2018-09-25T12:44:19.280Z,100071.52
2018-09-25T12:46:53.108Z,100069.98
2018-09-25T12:49:26.990Z,100065.92
2018-09-25T12:52:00.689Z,100072.84
2018-09-25T12:54:34.444Z,100068.34
2018-09-25T12:57:08.449Z,100065.27
2018-09-25T12:59:42.461Z,100076.77
2018-09-25T13:02:16.517Z,100069.73
2018-09-25T13:04:50.281Z,100068.94
2018-09-25T13:07:24.730Z,100061.59
2018-09-25T13:09:58.584Z,100058.44
2018-09-25T13:12:32.393Z,100061.33
2018-09-25T13:15:06.406Z,100058.79
2018-09-25T13:17:40.341Z,100070.56
2018-09-25T13:20:14.227Z,100062.75
2018-09-25T13:22:49.521Z,100059.62
2018-09-25T13:25:23.660Z,100064.64
2018-09-25T13:27:57.716Z,100065.61
2018-09-25T13:30:32.217Z,100064.70
2018-09-25T13:33:06.233Z,100056.70
2018-09-25T13:35:40.069Z,100051.51
2018-09-25T13:38:13.877Z,100050.91
2018-09-25T13:40:47.596Z,100050.77
2018-09-25T13:43:21.376Z,100055.94
2018-09-25T13:45:55.255Z,100049.94
2018-09-25T13:48:29.206Z,100058.84
2018-09-25T13:51:02.968Z,100051.47
2018-09-25T13:53:36.742Z,100056.84
2018-09-25T13:56:10.770Z,100045.38
2018-09-25T13:58:44.662Z,100041.84
2018-09-25T14:01:18.512Z,100041.10
2018-09-25T14:03:52.410Z,100023.66
2018-09-25T14:06:26.282Z,100019.64
2018-09-25T14:09:00.067Z,100020.64
2018-09-25T14:11:33.888Z,100016.59
2018-09-25T14:14:07.622Z,100013.83
2018-09-25T14:16:41.298Z,100013.08
2018-09-25T14:19:14.965Z,100016.10
2018-09-25T14:21:48.909Z,100013.72
2018-09-25T14:24:22.652Z,100014.02
2018-09-25T14:26:56.606Z,100020.48
2018-09-25T14:29:30.586Z,100013.78
2018-09-25T14:32:04.337Z,100015.86
2018-09-25T14:34:38.234Z,100014.34
2018-09-25T14:37:12.158Z,100011.41
2018-09-25T14:39:45.992Z,100012.80
2018-09-25T14:42:19.906Z,100018.86
2018-09-25T14:44:53.633Z,100024.36
2018-09-25T14:47:27.586Z,100018.47
2018-09-25T14:50:01.217Z,100017.26
2018-09-25T14:52:35.045Z,100019.97
2018-09-25T14:55:08.750Z,100026.67
2018-09-25T14:57:42.532Z,100032.96
2018-09-25T15:00:15.845Z,100034.05
2018-09-25T15:02:49.589Z,100034.80
2018-09-25T15:05:23.429Z,100028.44
2018-09-25T15:07:57.322Z,100025.49
2018-09-25T15:10:31.149Z,100020.35
2018-09-25T15:13:05.127Z,100020.89
2018-09-25T15:15:38.875Z,100020.98
2018-09-25T15:18:12.802Z,100025.39
2018-09-25T15:20:46.518Z,100018.39
2018-09-25T15:23:20.262Z,100028.40
2018-09-25T15:25:54.225Z,100025.58
2018-09-25T15:28:27.977Z,100020.89
2018-09-25T15:31:01.784Z,100018.11
2018-09-25T15:33:35.552Z,100020.71
2018-09-25T15:36:09.450Z,100021.77
2018-09-25T15:38:43.229Z,100023.95
2018-09-25T15:41:17.151Z,100021.38
2018-09-25T15:43:50.948Z,100024.16
2018-09-25T15:46:24.610Z,100023.48
2018-09-25T15:48:58.979Z,100035.81
2018-09-25T15:51:32.759Z,100035.83
2018-09-25T15:54:08.054Z,100031.05
2018-09-25T15:56:42.724Z,100029.87
2018-09-25T15:59:16.553Z,100028.31
2018-09-25T16:01:50.525Z,100023.74
2018-09-25T16:04:24.414Z,100018.92
2018-09-25T16:06:58.336Z,100020.31
2018-09-25T16:09:32.291Z,100017.56
2018-09-25T16:12:06.149Z,100005.14
2018-09-25T16:14:40.251Z,100009.80
2018-09-25T16:17:14.501Z,100007.66
2018-09-25T16:19:48.566Z,100013.16
2018-09-25T16:22:22.463Z,100019.67
2018-09-25T16:24:56.585Z,100020.01
2018-09-25T16:27:30.591Z,100020.14
2018-09-25T16:30:04.737Z,100015.34
2018-09-25T16:32:39.699Z,100019.86
2018-09-25T16:35:13.480Z,100023.52
2018-09-25T16:37:48.312Z,100024.92
2018-09-25T16:40:22.212Z,100030.68
2018-09-25T16:42:55.951Z,100033.34
2018-09-25T16:45:29.743Z,100028.98
2018-09-25T16:48:03.505Z,100031.38
2018-09-25T16:50:37.249Z,100037.13
2018-09-25T16:53:10.949Z,100037.59
2018-09-25T16:55:44.876Z,100034.02
2018-09-25T16:58:18.724Z,100039.63
2018-09-25T17:00:52.604Z,100045.92
2018-09-25T17:03:26.422Z,100048.36
2018-09-25T17:06:00.436Z,100055.77
2018-09-25T17:08:34.305Z,100059.08
2018-09-25T17:11:08.102Z,100062.70
2018-09-25T17:13:41.781Z,100064.16
2018-09-25T17:16:15.515Z,100075.86
2018-09-25T17:18:49.278Z,100075.47
2018-09-25T17:21:23.022Z,100075.30
2018-09-25T17:23:56.830Z,100081.75
2018-09-25T17:26:30.580Z,100090.78
2018-09-25T17:29:04.493Z,100090.09
2018-09-25T17:31:38.270Z,100091.35
2018-09-25T17:34:12.249Z,100089.13
2018-09-25T17:36:46.049Z,100091.19
2018-09-25T17:39:19.941Z,100088.66
2018-09-25T17:41:53.886Z,100092.58
2018-09-25T17:44:27.774Z,100089.34
2018-09-25T17:47:01.446Z,100088.20
2018-09-25T17:49:35.127Z,100094.22
2018-09-25T17:52:08.984Z,100095.77
2018-09-25T17:54:42.888Z,100094.75
2018-09-25T17:57:16.688Z,100092.86
2018-09-25T17:59:50.517Z,100083.12
2018-09-25T18:02:24.313Z,100087.72
2018-09-25T18:05:00.602Z,100084.07
2018-09-25T18:07:34.381Z,100074.95
2018-09-25T18:10:08.121Z,100091.52
2018-09-25T18:12:42.018Z,100084.91
2018-09-25T18:15:15.857Z,100086.12
2018-09-25T18:17:49.525Z,100086.55
2018-09-25T18:20:23.336Z,100085.22
2018-09-25T18:22:57.160Z,100095.77
2018-09-25T18:25:30.805Z,100097.13
2018-09-25T18:28:04.744Z,100103.80
2018-09-25T18:30:38.552Z,100111.48
2018-09-25T18:33:12.453Z,100110.63
2018-09-25T18:35:46.093Z,100118.80
2018-09-25T18:38:19.848Z,100128.13
2018-09-25T18:40:53.601Z,100132.82
2018-09-25T18:43:27.508Z,100136.97
2018-09-25T18:46:01.211Z,100142.14
2018-09-25T18:48:34.959Z,100142.80
2018-09-25T18:51:08.626Z,100148.98
2018-09-25T18:53:42.281Z,100146.80
2018-09-25T18:56:16.181Z,100145.30
2018-09-25T18:58:49.908Z,100140.45
2018-09-25T19:01:23.692Z,100141.63
2018-09-25T19:03:57.474Z,100144.11
2018-09-25T19:06:31.272Z,100142.59
2018-09-25T19:09:05.056Z,100140.75
2018-09-25T19:11:38.908Z,100133.94
2018-09-25T19:14:12.824Z,100140.75
2018-09-25T19:16:46.670Z,100146.41
2018-09-25T19:19:20.561Z,100153.05
2018-09-25T19:21:54.437Z,100152.20
2018-09-25T19:24:28.369Z,100152.20
2018-09-25T19:27:02.763Z,100157.84
2018-09-25T19:29:36.676Z,100159.16
2018-09-25T19:32:10.374Z,100167.94
2018-09-25T19:34:44.174Z,100175.08
2018-09-25T19:37:17.989Z,100171.39
2018-09-25T19:39:51.905Z,100171.02
2018-09-25T19:42:25.596Z,100173.34
2018-09-25T19:44:59.533Z,100173.84
2018-09-25T19:47:33.328Z,100166.29
2018-09-25T19:50:07.097Z,100172.42
2018-09-25T19:52:40.904Z,100165.94
2018-09-25T19:55:14.631Z,100169.77
2018-09-25T19:57:48.300Z,100170.87
2018-09-25T20:00:22.141Z,100179.16
2018-09-25T20:02:55.977Z,100170.92
2018-09-25T20:05:29.744Z,100169.72
2018-09-25T20:08:03.416Z,100167.39
2018-09-25T20:10:37.204Z,100166.42
2018-09-25T20:13:11.185Z,100171.33
2018-09-25T20:15:45.096Z,100166.79
2018-09-25T20:18:18.978Z,100165.30
2018-09-25T20:20:52.682Z,100175.10
2018-09-25T20:23:26.666Z,100172.94
2018-09-25T20:26:00.512Z,100180.01
2018-09-25T20:28:34.175Z,100177.34
2018-09-25T20:31:07.826Z,100188.84
2018-09-25T20:33:41.642Z,100189.78
2018-09-25T20:36:15.584Z,100195.62
2018-09-25T20:38:49.516Z,100195.19
2018-09-25T20:41:23.370Z,100190.58
2018-09-25T20:43:57.053Z,100192.29
2018-09-25T20:46:30.828Z,100191.83
2018-09-25T20:49:04.730Z,100187.28
2018-09-25T20:51:38.684Z,100189.93
2018-09-25T20:54:12.516Z,100185.14
2018-09-25T20:56:46.193Z,100185.83
2018-09-25T20:59:19.926Z,100187.62
2018-09-25T21:01:53.820Z,100192.55
2018-09-25T21:04:27.433Z,100192.72
2018-09-25T21:07:01.192Z,100195.45
2018-09-25T21:09:35.068Z,100195.44
2018-09-25T21:12:08.829Z,100198.15
2018-09-25T21:14:42.639Z,100191.15
2018-09-25T21:17:16.433Z,100193.09
2018-09-25T21:19:50.167Z,100183.58
2018-09-25T21:22:23.844Z,100190.59
2018-09-25T21:24:57.624Z,100192.94
2018-09-25T21:27:31.498Z,100189.96
2018-09-25T21:30:05.189Z,100190.34
2018-09-25T21:32:39.008Z,100191.61
2018-09-25T21:35:12.972Z,100196.10
2018-09-25T21:37:46.783Z,100195.95
2018-09-25T21:40:20.533Z,100191.98
2018-09-25T21:42:54.476Z,100193.33
2018-09-25T21:45:28.391Z,100193.63
2018-09-25T21:48:02.212Z,100184.27
2018-09-25T21:50:36.109Z,100187.55
2018-09-25T21:53:09.945Z,100196.67
2018-09-25T21:55:43.632Z,100189.73
2018-09-25T21:58:17.328Z,100189.16
2018-09-25T22:00:51.076Z,100191.18
2018-09-25T22:03:24.764Z,100184.23
2018-09-25T22:05:58.708Z,100192.09
2018-09-25T22:08:32.679Z,100195.66
2018-09-25T22:11:06.496Z,100196.33
2018-09-25T22:13:40.534Z,100184.56
2018-09-25T22:16:14.121Z,100178.86
2018-09-25T22:18:47.883Z,100179.74
2018-09-25T22:21:21.810Z,100172.51
2018-09-25T22:23:55.804Z,100175.52
2018-09-25T22:26:29.697Z,100171.95
2018-09-25T22:29:03.507Z,100168.31
2018-09-25T22:31:37.251Z,100163.98
2018-09-25T22:34:11.193Z,100159.79
2018-09-25T22:36:44.956Z,100158.87
2018-09-25T22:39:18.910Z,100162.10
2018-09-25T22:41:52.721Z,100167.39
2018-09-25T22:44:26.640Z,100157.19
2018-09-25T22:47:00.558Z,100147.88
2018-09-25T22:49:34.421Z,100159.98
2018-09-25T22:52:08.225Z,100160.60
2018-09-25T22:54:41.994Z,100154.50
2018-09-25T22:57:15.644Z,100159.86
2018-09-25T22:59:49.435Z,100153.31
2018-09-25T23:02:23.393Z,100140.72
2018-09-25T23:04:57.181Z,100145.37
2018-09-25T23:07:31.080Z,100149.92
2018-09-25T23:10:04.785Z,100157.03
2018-09-25T23:12:38.500Z,100161.00
2018-09-25T23:15:12.574Z,100172.00
2018-09-25T23:17:46.447Z,100178.95
2018-09-25T23:20:20.490Z,100173.16
2018-09-25T23:22:54.478Z,100168.30
2018-09-25T23:25:28.297Z,100164.31
2018-09-25T23:28:02.192Z,100159.25
2018-09-25T23:30:36.135Z,100162.45
2018-09-25T23:33:09.990Z,100167.33
2018-09-25T23:35:43.858Z,100160.59
2018-09-25T23:38:17.884Z,100165.52
2018-09-25T23:40:52.572Z,100165.52
2018-09-25T23:43:28.313Z,100165.86
2018-09-25T23:46:02.881Z,100159.32
2018-09-25T23:48:39.565Z,100161.96
2018-09-25T23:51:16.408Z,100167.45
2018-09-25T23:53:51.943Z,100168.34
2018-09-25T23:56:30.499Z,100174.59
2018-09-25T23:59:02.773Z,100167.27
